This is the latest recevied weather packets stored in our database for station/object IW2NIA-3. If no packets are shown the sender has not sent any weather packets the latest 10 day(s).
| Time | Temp. | Humidity | Pressure | Rain* | Wind** | Luminosity | Snow |
|---|---|---|---|---|---|---|---|
| 1788513526 | 27.22° C | 55% | 1019.7 hPa | 0 mm | - | - | - |
| 1788512627 | 26.67° C | 59% | 1019.6 hPa | 0 mm | - | - | - |
| 1788511720 | 26.67° C | 59% | 1019.7 hPa | 0 mm | - | - | - |
| 1788510809 | 26.11° C | 58% | 1019.7 hPa | 0 mm | - | - | - |
| 1788509927 | 25.56° C | 59% | 1019.7 hPa | 0 mm | - | - | - |
| 1788509023 | 25.56° C | 62% | 1019.7 hPa | 0 mm | - | - | - |
| 1788508117 | 25° C | 63% | 1019.6 hPa | 0 mm | - | - | - |
| 1788507214 | 24.44° C | 64% | 1019.7 hPa | 0 mm | - | - | - |
| 1788506308 | 24.44° C | 65% | 1019.5 hPa | 0 mm | - | - | - |
| 1788505421 | 23.33° C | 67% | 1019.3 hPa | 0 mm | - | - | - |
| 1788504516 | 22.78° C | 69% | 1019.4 hPa | 0 mm | - | - | - |
| 1788503608 | 22.22° C | 70% | 1019.2 hPa | 0 mm | - | - | - |
| 1788502708 | 21.67° C | 74% | 1019.1 hPa | 0 mm | - | - | - |
| 1788501822 | 20.56° C | 75% | 1019.1 hPa | 0 mm | - | - | - |
| 1788500912 | 20° C | 77% | 1019.2 hPa | 0 mm | - | - | - |
| 1788500008 | 19.44° C | 78% | 1019 hPa | 0 mm | - | - | - |
| 1788499108 | 18.89° C | 80% | 1018.8 hPa | 0 mm | - | - | - |
| 1788498224 | 18.33° C | 81% | 1018.8 hPa | 0 mm | - | - | - |
| 1788497325 | 18.33° C | 80% | 1018.7 hPa | 0 mm | - | - | - |
| 1788496418 | 18.89° C | 80% | 1018.6 hPa | 0 mm | - | - | - |
| 1788495510 | 18.89° C | 80% | 1018.6 hPa | 0 mm | - | - | - |
| 1788494624 | 18.89° C | 80% | 1018.6 hPa | 0 mm | - | - | - |
| 1788493717 | 18.89° C | 79% | 1018.6 hPa | 0 mm | - | - | - |
| 1788492814 | 19.44° C | 77% | 1018.6 hPa | 0 mm | - | - | - |
| 1788491913 | 19.44° C | 76% | 1018.6 hPa | 0 mm | - | - | - |
* Rain latest hour (hover to see other rain measurements)
** Current wind speed in m/s (hover to see current wind gust speed)